Time;durP1;ratioP1;P1;durP2;ratioP2;P2;SDS_P1;SDS_P2;PMS_P1;PMS_P2;Temp;Humidity;BMP_temperature;BMP_pressure;BME280_temperature;BME280_humidity;BME280_pressure;Samples;Min_cycle;Max_cycle;Signal;HPM_P1;HPM_P2
2021/12/21 00:00:57;;;;;;;20.60;9.27;;;;;;;-4.45;100.00;100343.28;4949683;28;20405;-60
2021/12/21 00:03:23;;;;;;;28.50;9.13;;;;;;;-4.70;98.57;100334.69;4951082;28;20394;-60
2021/12/21 00:05:49;;;;;;;23.13;8.57;;;;;;;-4.31;100.00;100334.34;4955737;28;20186;-61
2021/12/21 00:08:16;;;;;;;19.92;7.82;;;;;;;-4.51;99.54;100343.75;4950674;28;20027;-60
2021/12/21 00:10:43;;;;;;;29.20;8.32;;;;;;;-4.56;99.59;100334.47;4945952;28;20049;-62
2021/12/21 00:13:22;;;;;;;18.08;8.20;;;;;;;-4.68;99.45;100335.41;4953442;28;20019;-60
2021/12/21 00:21:41;;;;;;;24.40;9.85;;;;;;;-4.91;98.46;100326.69;4954909;28;20343;-62
2021/12/21 00:24:12;;;;;;;20.67;8.85;;;;;;;-4.74;97.96;100322.81;4955012;28;20046;-60
2021/12/21 00:26:38;;;;;;;27.30;9.82;;;;;;;-4.77;98.16;100328.25;4951803;28;20046;-61
2021/12/21 00:29:03;;;;;;;22.95;9.07;;;;;;;-4.73;99.54;100331.47;4952196;28;20378;-60
2021/12/21 00:31:32;;;;;;;27.17;10.55;;;;;;;-4.55;100.00;100323.03;4947251;28;20086;-61
2021/12/21 00:33:58;;;;;;;21.90;9.80;;;;;;;-4.70;100.00;100323.41;4950289;28;20029;-61
2021/12/21 00:36:25;;;;;;;20.35;8.90;;;;;;;-4.74;100.00;100321.94;4949191;28;20043;-60
2021/12/21 00:38:51;;;;;;;24.63;9.18;;;;;;;-4.49;100.00;100315.66;4954873;28;20105;-61
2021/12/21 00:41:17;;;;;;;20.02;8.52;;;;;;;-4.65;100.00;100309.00;4947647;28;20035;-61
2021/12/21 00:43:42;;;;;;;18.95;8.57;;;;;;;-4.57;100.00;100311.88;4952736;28;20045;-60
2021/12/21 00:46:08;;;;;;;19.45;8.57;;;;;;;-4.48;100.00;100314.72;4947921;28;20134;-62
2021/12/21 00:48:35;;;;;;;21.23;9.52;;;;;;;-4.57;100.00;100311.88;4951838;28;20482;-61
2021/12/21 00:51:02;;;;;;;21.85;9.50;;;;;;;-4.40;100.00;100310.53;4950929;28;20055;-61
2021/12/21 00:53:28;;;;;;;18.60;8.32;;;;;;;-4.58;100.00;100304.97;4952431;28;20079;-61
2021/12/21 00:55:53;;;;;;;26.50;8.93;;;;;;;-4.72;99.80;100305.19;4945137;28;20050;-61
2021/12/21 00:58:19;;;;;;;23.95;8.45;;;;;;;-4.80;100.00;100304.94;4945353;28;20033;-61
2021/12/21 01:00:44;;;;;;;19.50;7.60;;;;;;;-4.90;100.00;100302.19;4947820;28;20046;-61
2021/12/21 01:03:12;;;;;;;15.23;7.30;;;;;;;-4.90;100.00;100306.59;4953477;28;20058;-61
2021/12/21 01:05:58;;;;;;;19.40;8.10;;;;;;;-4.77;100.00;100292.50;4950825;28;20513;-61
2021/12/21 01:08:27;;;;;;;20.98;8.73;;;;;;;-4.66;100.00;100291.66;4943435;28;20140;-62
2021/12/21 01:11:04;;;;;;;16.35;8.10;;;;;;;-4.55;100.00;100293.44;4956636;28;20042;-63
2021/12/21 01:13:47;;;;;;;22.13;7.53;;;;;;;-4.62;100.00;100295.72;4955679;28;20122;-62
2021/12/21 01:19:02;;;;;;;25.58;8.00;;;;;;;-4.75;100.00;100289.72;4948497;28;20053;-62
2021/12/21 01:21:32;;;;;;;15.45;7.25;;;;;;;-4.69;100.00;100284.03;4949907;28;20055;-62
2021/12/21 01:27:08;;;;;;;16.30;6.80;;;;;;;-4.79;100.00;100293.56;4947679;28;20035;-62
2021/12/21 01:41:55;;;;;;;12.07;6.30;;;;;;;-5.15;100.00;100286.72;4954097;28;20556;-62
2021/12/21 01:50:02;;;;;;;24.98;7.22;;;;;;;-4.76;100.00;100282.84;4950014;28;20170;-62
2021/12/21 01:52:28;;;;;;;19.48;8.00;;;;;;;-4.70;100.00;100281.53;4954028;28;20297;-62
2021/12/21 01:54:54;;;;;;;22.02;8.75;;;;;;;-4.58;100.00;100284.03;4945293;28;20027;-62
2021/12/21 01:57:19;;;;;;;18.48;8.95;;;;;;;-4.51;100.00;100280.94;4949254;28;20043;-62
2021/12/21 01:59:45;;;;;;;19.60;7.03;;;;;;;-4.23;100.00;100280.44;4950286;28;20023;-62
2021/12/21 02:02:12;;;;;;;18.90;8.70;;;;;;;-4.51;100.00;100287.00;4944364;28;20142;-62
2021/12/21 02:04:38;;;;;;;25.77;7.93;;;;;;;-4.67;100.00;100282.13;4950476;28;20510;-62
2021/12/21 02:07:04;;;;;;;17.90;7.72;;;;;;;-4.64;100.00;100279.28;4951533;28;20065;-62
2021/12/21 02:09:37;;;;;;;13.27;6.93;;;;;;;-4.88;100.00;100274.16;4952365;28;20049;-62
2021/12/21 02:12:07;;;;;;;18.08;6.95;;;;;;;-4.81;100.00;100274.53;4945788;28;20043;-62
2021/12/21 02:14:32;;;;;;;14.52;7.20;;;;;;;-4.83;100.00;100271.19;4950063;28;20034;-62
2021/12/21 02:19:39;;;;;;;15.07;6.97;;;;;;;-4.88;100.00;100278.56;4951935;28;20047;-62
2021/12/21 02:22:12;;;;;;;14.43;6.53;;;;;;;-4.94;100.00;100269.41;4954843;28;20803;-62
2021/12/21 02:24:51;;;;;;;14.43;7.00;;;;;;;-5.25;100.00;100263.88;4957566;28;20351;-62
2021/12/21 02:29:50;;;;;;;15.18;7.25;;;;;;;-5.07;100.00;100263.44;4956760;28;20334;-62
2021/12/21 02:32:16;;;;;;;14.63;6.45;;;;;;;-5.05;100.00;100264.97;4956107;28;20047;-62
2021/12/21 02:34:44;;;;;;;18.30;7.80;;;;;;;-5.08;100.00;100256.53;4951305;28;20049;-62
2021/12/21 02:37:10;;;;;;;18.95;6.97;;;;;;;-5.10;100.00;100263.66;4950080;28;20058;-62
2021/12/21 02:39:35;;;;;;;17.73;6.75;;;;;;;-4.91;100.00;100258.72;4952507;28;20030;-62
2021/12/21 02:42:01;;;;;;;15.38;6.88;;;;;;;-5.15;100.00;100258.78;4951958;28;20435;-62
2021/12/21 02:44:26;;;;;;;17.65;7.40;;;;;;;-4.74;100.00;100244.34;4955682;28;20034;-62
2021/12/21 02:46:52;;;;;;;20.63;6.80;;;;;;;-5.00;100.00;100248.94;4955870;28;20392;-62
2021/12/21 02:49:18;;;;;;;21.45;7.13;;;;;;;-4.86;100.00;100253.13;4952959;28;20480;-62
2021/12/21 02:51:44;;;;;;;24.88;6.18;;;;;;;-4.77;100.00;100247.16;4942518;28;20412;-62
2021/12/21 02:54:10;;;;;;;13.88;7.10;;;;;;;-4.99;100.00;100241.00;4955847;28;20041;-62
2021/12/21 02:56:36;;;;;;;13.68;6.25;;;;;;;-5.10;100.00;100243.59;4944709;28;20047;-62
2021/12/21 02:59:01;;;;;;;18.75;7.13;;;;;;;-5.17;100.00;100247.59;4955034;28;20039;-62
2021/12/21 03:01:28;;;;;;;19.35;6.80;;;;;;;-5.28;100.00;100250.22;4953724;28;20283;-62
2021/12/21 03:03:53;;;;;;;17.27;7.70;;;;;;;-5.46;100.00;100248.03;4957494;28;20038;-62
2021/12/21 03:08:57;;;;;;;18.77;6.47;;;;;;;-5.40;100.00;100245.91;4949290;28;20125;-62
2021/12/21 03:14:08;;;;;;;9.70;5.85;;;;;;;-5.63;100.00;100251.06;4950100;28;20510;-62
2021/12/21 03:16:37;;;;;;;12.43;6.43;;;;;;;-5.88;100.00;100252.88;4952941;28;20039;-62
2021/12/21 03:19:04;;;;;;;16.90;6.40;;;;;;;-5.97;100.00;100253.56;4948402;28;20051;-62
2021/12/21 03:21:29;;;;;;;13.25;6.95;;;;;;;-5.38;100.00;100249.25;4955380;28;20097;-61
2021/12/21 03:23:55;;;;;;;25.67;7.55;;;;;;;-5.47;100.00;100255.97;4950023;28;20035;-62
2021/12/21 03:26:20;;;;;;;14.00;7.18;;;;;;;-5.60;100.00;100263.91;4948202;28;20074;-63
2021/12/21 03:28:46;;;;;;;21.80;8.43;;;;;;;-5.63;100.00;100251.91;4952091;28;20564;-62
2021/12/21 03:31:11;;;;;;;16.10;7.82;;;;;;;-5.69;100.00;100254.97;4948201;28;20257;-62
2021/12/21 03:33:36;;;;;;;18.42;7.03;;;;;;;-5.79;100.00;100250.50;4950906;28;20385;-62
2021/12/21 03:36:03;;;;;;;17.55;8.10;;;;;;;-5.72;100.00;100255.19;4949590;28;20150;-61
2021/12/21 03:38:29;;;;;;;18.25;7.20;;;;;;;-5.65;100.00;100252.94;4946245;28;20094;-62
2021/12/21 03:41:01;;;;;;;15.90;7.20;;;;;;;-5.61;100.00;100253.56;4950747;28;20087;-61
2021/12/21 03:43:29;;;;;;;14.45;7.28;;;;;;;-5.56;100.00;100257.50;4949675;28;20032;-62
2021/12/21 03:46:02;;;;;;;13.13;7.07;;;;;;;-5.71;100.00;100261.25;4950990;28;20145;-60
2021/12/21 03:48:28;;;;;;;18.58;7.55;;;;;;;-5.77;100.00;100257.28;4957186;28;20674;-60
2021/12/21 03:50:54;;;;;;;19.73;7.78;;;;;;;-5.72;100.00;100259.56;4951740;28;20112;-62
2021/12/21 03:53:19;;;;;;;18.23;7.10;;;;;;;-5.21;100.00;100261.88;4950867;28;20689;-62
2021/12/21 03:55:44;;;;;;;23.27;7.28;;;;;;;-5.32;100.00;100264.44;4950521;28;20051;-61
2021/12/21 03:58:10;;;;;;;19.05;8.32;;;;;;;-5.08;100.00;100257.38;4953392;28;20050;-62
2021/12/21 04:00:35;;;;;;;17.50;7.72;;;;;;;-4.94;100.00;100263.31;4956212;28;20046;-61
2021/12/21 04:03:01;;;;;;;21.15;7.60;;;;;;;-5.20;100.00;100258.31;4944095;28;20671;-61
2021/12/21 04:05:26;;;;;;;19.92;7.93;;;;;;;-5.33;100.00;100262.78;4952177;28;20163;-62
2021/12/21 04:07:52;;;;;;;17.73;7.22;;;;;;;-5.43;100.00;100260.03;4953213;28;20039;-62
2021/12/21 04:10:17;;;;;;;20.13;6.90;;;;;;;-5.49;100.00;100266.56;4950465;28;20031;-61
2021/12/21 04:12:42;;;;;;;14.48;6.70;;;;;;;-5.61;100.00;100261.41;4948024;28;20046;-62
2021/12/21 04:15:08;;;;;;;13.45;6.95;;;;;;;-5.75;100.00;100262.41;4955327;28;20089;-61
2021/12/21 04:17:34;;;;;;;10.88;6.13;;;;;;;-5.85;100.00;100263.06;4950705;28;20043;-61
2021/12/21 04:19:59;;;;;;;22.25;6.90;;;;;;;-5.03;100.00;100265.69;4954163;28;20038;-60
2021/12/21 04:22:25;;;;;;;18.45;7.75;;;;;;;-5.12;100.00;100260.34;4952749;28;20866;-60
2021/12/21 04:24:50;;;;;;;24.40;8.27;;;;;;;-5.03;100.00;100257.84;4948123;28;20487;-62
2021/12/21 04:27:16;;;;;;;25.17;8.80;;;;;;;-5.38;100.00;100249.25;4950436;28;20046;-62
2021/12/21 04:29:41;;;;;;;18.80;8.00;;;;;;;-5.13;100.00;100251.66;4953442;28;20053;-62
2021/12/21 04:32:07;;;;;;;12.82;7.63;;;;;;;-5.24;100.00;100251.66;4952963;28;20045;-62
2021/12/21 04:34:33;;;;;;;21.30;8.05;;;;;;;-5.39;100.00;100247.56;4949555;28;20244;-62
2021/12/21 04:36:59;;;;;;;20.58;8.13;;;;;;;-5.66;100.00;100239.06;4950315;28;20557;-62
2021/12/21 04:39:34;;;;;;;18.83;7.65;;;;;;;-5.86;100.00;100235.31;4957192;28;20039;-62
2021/12/21 04:42:00;;;;;;;20.52;8.55;;;;;;;-5.86;100.00;100234.50;4951226;28;20047;-61
2021/12/21 04:44:25;;;;;;;19.05;8.18;;;;;;;-5.85;100.00;100247.41;4954130;28;20042;-61
2021/12/21 04:46:51;;;;;;;15.73;6.82;;;;;;;-5.96;100.00;100242.19;4950767;28;20046;-61
2021/12/21 04:49:17;;;;;;;16.88;6.22;;;;;;;-5.77;100.00;100243.41;4952367;28;20140;-61
2021/12/21 04:51:42;;;;;;;16.48;6.60;;;;;;;-5.94;100.00;100237.69;4949613;28;20450;-61
2021/12/21 04:54:08;;;;;;;15.77;6.53;;;;;;;-5.82;100.00;100235.09;4954019;28;20030;-61
2021/12/21 04:56:33;;;;;;;17.65;6.53;;;;;;;-6.04;100.00;100236.69;4942139;28;20047;-61
2021/12/21 04:58:58;;;;;;;16.13;6.85;;;;;;;-5.95;100.00;100237.78;4950565;28;20027;-62
2021/12/21 05:01:24;;;;;;;14.63;6.55;;;;;;;-6.08;100.00;100235.25;4943969;28;20350;-61
2021/12/21 05:03:49;;;;;;;18.13;7.55;;;;;;;-6.15;100.00;100239.25;4949600;28;20039;-62
2021/12/21 05:06:17;;;;;;;17.40;8.15;;;;;;;-6.10;100.00;100240.56;4947418;28;20784;-62
2021/12/21 05:08:42;;;;;;;25.27;8.68;;;;;;;-5.76;100.00;100234.66;4950944;28;20145;-62
2021/12/21 05:11:08;;;;;;;21.15;8.82;;;;;;;-5.64;100.00;100237.19;4954178;28;20058;-61
2021/12/21 05:13:37;;;;;;;17.20;8.68;;;;;;;-5.58;100.00;100237.66;4952797;28;20433;-62
2021/12/21 05:16:03;;;;;;;19.88;8.63;;;;;;;-5.66;100.00;100233.03;4949704;28;20039;-62
2021/12/21 05:18:28;;;;;;;19.38;8.65;;;;;;;-5.77;100.00;100232.97;4948119;28;20050;-62
2021/12/21 05:20:54;;;;;;;26.42;8.98;;;;;;;-5.78;100.00;100228.69;4951309;28;20062;-62
2021/12/21 05:23:19;;;;;;;18.15;8.10;;;;;;;-5.78;100.00;100226.91;4953978;28;20049;-62
2021/12/21 05:25:45;;;;;;;19.23;8.45;;;;;;;-5.76;100.00;100230.25;4947704;28;20054;-62
2021/12/21 05:28:11;;;;;;;27.65;8.70;;;;;;;-5.74;100.00;100224.91;4944756;28;20035;-62
2021/12/21 05:30:37;;;;;;;23.10;8.32;;;;;;;-5.97;100.00;100232.66;4947167;28;20488;-64
2021/12/21 05:33:03;;;;;;;26.58;8.30;;;;;;;-6.09;100.00;100228.34;4951950;28;20451;-62
2021/12/21 05:35:28;;;;;;;20.35;8.40;;;;;;;-5.33;100.00;100234.06;4947526;28;20086;-62
2021/12/21 05:37:58;;;;;;;27.50;8.20;;;;;;;-5.95;100.00;100238.63;4952047;28;20043;-62
2021/12/21 05:40:31;;;;;;;20.63;8.02;;;;;;;-6.03;100.00;100230.53;4954861;28;20398;-62
2021/12/21 05:42:57;;;;;;;17.80;8.10;;;;;;;-5.77;100.00;100227.75;4957137;28;20054;-61
2021/12/21 05:45:22;;;;;;;23.33;10.02;;;;;;;-5.32;100.00;100227.88;4951459;28;20557;-62
2021/12/21 05:47:48;;;;;;;17.35;8.43;;;;;;;-5.62;100.00;100226.59;4935717;28;20171;-62
2021/12/21 05:50:16;;;;;;;18.52;8.85;;;;;;;-5.61;100.00;100228.28;4960687;28;20033;-61
2021/12/21 05:52:42;;;;;;;28.40;10.30;;;;;;;-4.84;100.00;100227.66;4959385;28;20022;-61
2021/12/21 05:55:07;;;;;;;25.13;10.63;;;;;;;-5.00;100.00;100235.88;4949700;28;20027;-63
2021/12/21 05:57:33;;;;;;;18.55;10.10;;;;;;;-5.17;100.00;100225.88;4959864;28;20108;-62
2021/12/21 05:59:58;;;;;;;24.33;11.20;;;;;;;-5.29;100.00;100233.72;4957051;28;20109;-63
2021/12/21 06:02:24;;;;;;;33.30;10.57;;;;;;;-4.99;100.00;100234.94;4949329;28;20323;-62
2021/12/21 06:04:49;;;;;;;24.50;11.00;;;;;;;-5.38;100.00;100233.56;4951654;28;20031;-62
2021/12/21 06:07:15;;;;;;;23.10;9.10;;;;;;;-5.77;100.00;100236.41;4954782;28;20046;-62
2021/12/21 06:09:43;;;;;;;18.13;8.32;;;;;;;-5.99;100.00;100234.59;4959215;28;20034;-61
2021/12/21 06:12:16;;;;;;;28.48;9.88;;;;;;;-6.05;100.00;100235.00;4947845;28;20062;-61
2021/12/21 06:22:45;;;;;;;25.02;8.40;;;;;;;-5.77;100.00;100243.41;4957503;28;20073;-62
2021/12/21 06:27:37;;;;;;;29.40;8.02;;;;;;;-6.07;100.00;100244.72;4952589;28;20050;-63
2021/12/21 06:30:06;;;;;;;12.85;6.35;;;;;;;-6.26;100.00;100245.25;4953766;28;20031;-61
2021/12/21 06:32:31;;;;;;;19.88;6.93;;;;;;;-6.36;100.00;100247.66;4948396;28;20033;-61
2021/12/21 06:34:57;;;;;;;18.67;7.35;;;;;;;-6.46;100.00;100251.88;4957604;28;20023;-62
2021/12/21 06:37:23;;;;;;;16.55;7.85;;;;;;;-6.68;100.00;100244.72;4945740;28;20075;-62
2021/12/21 06:39:48;;;;;;;13.88;8.00;;;;;;;-6.82;100.00;100245.66;4958995;28;20041;-63
2021/12/21 06:42:14;;;;;;;25.83;9.50;;;;;;;-6.84;100.00;100244.09;4960279;28;20043;-62
2021/12/21 06:44:43;;;;;;;15.50;8.15;;;;;;;-6.75;100.00;100240.88;4949866;28;20273;-62
2021/12/21 06:52:38;;;;;;;15.52;7.60;;;;;;;-6.87;100.00;100231.28;4950427;28;20046;-62
2021/12/21 06:55:03;;;;;;;17.17;7.82;;;;;;;-6.50;100.00;100247.78;4954140;28;20034;-62
2021/12/21 06:57:29;;;;;;;17.35;8.15;;;;;;;-6.41;100.00;100241.13;4956384;28;20035;-62
2021/12/21 06:59:55;;;;;;;17.80;8.65;;;;;;;-6.55;100.00;100237.69;4949280;28;20054;-61
2021/12/21 07:02:20;;;;;;;24.02;9.38;;;;;;;-6.45;100.00;100237.88;4954301;28;20795;-61
2021/12/21 07:04:46;;;;;;;18.27;8.88;;;;;;;-6.61;100.00;100230.31;4942520;28;20046;-61
2021/12/21 07:07:12;;;;;;;22.02;9.40;;;;;;;-6.73;100.00;100239.81;4955548;28;20154;-60
2021/12/21 07:09:42;;;;;;;33.22;9.52;;;;;;;-6.37;100.00;100248.59;4957873;28;20146;-60
2021/12/21 07:20:05;;;;;;;16.88;8.63;;;;;;;-6.80;100.00;100238.56;4951765;28;20057;-61
2021/12/21 07:22:31;;;;;;;22.40;10.32;;;;;;;-6.67;100.00;100255.97;4952412;28;20043;-61
2021/12/21 07:24:56;;;;;;;21.00;10.50;;;;;;;-6.67;100.00;100250.75;4952614;28;20070;-60
2021/12/21 07:27:22;;;;;;;25.67;9.25;;;;;;;-6.63;100.00;100254.81;4951195;28;20039;-60
2021/12/21 07:29:48;;;;;;;27.75;10.32;;;;;;;-6.46;100.00;100251.00;4957137;28;20028;-61
2021/12/21 07:32:14;;;;;;;23.00;11.40;;;;;;;-6.57;100.00;100259.59;4949380;28;20154;-60
2021/12/21 07:34:39;;;;;;;20.30;10.32;;;;;;;-6.65;100.00;100262.75;4952788;28;20042;-60
2021/12/21 07:37:09;;;;;;;29.75;11.48;;;;;;;-6.63;100.00;100262.66;4953904;28;20358;-61
2021/12/21 07:39:34;;;;;;;30.00;11.32;;;;;;;-6.80;100.00;100264.63;4954015;28;20031;-61
2021/12/21 07:42:00;;;;;;;37.30;13.30;;;;;;;-6.68;100.00;100272.56;4953204;28;20042;-61
2021/12/21 07:44:25;;;;;;;32.47;11.70;;;;;;;-6.36;100.00;100276.38;4951675;28;20035;-61
2021/12/21 07:46:51;;;;;;;27.95;12.88;;;;;;;-6.27;100.00;100281.88;4952730;28;20043;-61
2021/12/21 07:49:16;;;;;;;30.80;12.52;;;;;;;-6.50;100.00;100271.28;4952509;28;20035;-61
2021/12/21 07:51:42;;;;;;;34.58;13.70;;;;;;;-6.58;100.00;100271.00;4956063;28;20046;-61
2021/12/21 07:54:07;;;;;;;49.85;16.02;;;;;;;-6.57;100.00;100275.25;4945862;28;20541;-61
2021/12/21 07:56:33;;;;;;;35.17;15.35;;;;;;;-6.49;100.00;100280.75;4946758;28;20055;-61
2021/12/21 07:58:58;;;;;;;42.30;15.38;;;;;;;-6.61;100.00;100289.47;4952876;28;20593;-61
2021/12/21 08:01:24;;;;;;;31.27;12.88;;;;;;;-6.64;100.00;100289.66;4950105;28;20430;-62
2021/12/21 08:03:50;;;;;;;30.00;12.15;;;;;;;-6.63;100.00;100292.16;4955224;28;20119;-62
2021/12/21 08:06:16;;;;;;;28.13;12.63;;;;;;;-6.62;100.00;100290.38;4949673;28;20049;-62
2021/12/21 08:08:44;;;;;;;35.22;16.08;;;;;;;-6.57;100.00;100290.91;4948298;28;20049;-61
2021/12/21 08:13:37;;;;;;;23.65;12.10;;;;;;;-6.66;100.00;100299.34;4951896;28;20046;-62
2021/12/21 08:16:02;;;;;;;25.40;11.32;;;;;;;-6.77;99.00;100284.44;4950716;28;20043;-62
2021/12/21 08:18:28;;;;;;;25.48;9.88;;;;;;;-6.68;99.73;100288.22;4952617;28;20063;-62
2021/12/21 08:20:53;;;;;;;23.20;11.30;;;;;;;-6.69;99.41;100287.34;4948686;28;20055;-62
2021/12/21 08:23:18;;;;;;;26.83;12.43;;;;;;;-6.51;100.00;100285.28;4954459;28;20061;-62
2021/12/21 08:25:44;;;;;;;37.88;14.80;;;;;;;-6.67;100.00;100285.47;4953500;28;20553;-61
2021/12/21 08:28:10;;;;;;;26.63;12.77;;;;;;;-6.18;100.00;100278.63;4952054;28;20153;-61
2021/12/21 08:30:36;;;;;;;34.90;11.95;;;;;;;-6.07;100.00;100289.94;4939713;28;20536;-61
2021/12/21 08:33:01;;;;;;;24.25;11.43;;;;;;;-6.14;100.00;100293.94;4951795;28;20039;-61
2021/12/21 08:35:27;;;;;;;31.75;11.95;;;;;;;-6.21;100.00;100292.72;4967747;28;20777;-65
2021/12/21 08:37:59;;;;;;;31.23;12.63;;;;;;;-6.20;100.00;100303.97;4952942;28;20046;-61
2021/12/21 08:40:24;;;;;;;30.70;13.45;;;;;;;-6.03;100.00;100295.78;4952242;28;20736;-62
2021/12/21 08:42:51;;;;;;;34.55;17.25;;;;;;;-5.93;100.00;100309.81;4949954;28;20038;-61
2021/12/21 08:45:17;;;;;;;34.08;17.60;;;;;;;-5.96;99.53;100302.22;4945732;28;20038;-61
2021/12/21 08:47:42;;;;;;;35.65;13.27;;;;;;;-6.05;98.24;100297.66;4954876;28;20106;-61
2021/12/21 08:50:09;;;;;;;28.63;14.23;;;;;;;-6.01;98.24;100293.91;4948756;28;20066;-61
2021/12/21 08:52:35;;;;;;;33.47;16.55;;;;;;;-5.34;100.00;100297.69;4956355;28;20134;-61
2021/12/21 08:55:02;;;;;;;43.20;16.63;;;;;;;-4.87;100.00;100293.28;4947478;28;20400;-61
2021/12/21 08:57:28;;;;;;;49.17;21.10;;;;;;;-4.57;98.91;100300.56;4950779;28;20552;-61
2021/12/21 08:59:53;;;;;;;41.88;20.95;;;;;;;-4.05;92.43;100299.06;4947614;28;20098;-62
2021/12/21 09:02:19;;;;;;;56.63;24.35;;;;;;;-3.19;86.42;100301.75;4953761;28;20054;-61
2021/12/21 09:04:44;;;;;;;48.78;21.95;;;;;;;-2.95;83.73;100298.88;4946862;28;20027;-61
2021/12/21 09:07:09;;;;;;;48.13;22.08;;;;;;;-3.05;83.33;100294.38;4953895;28;20054;-61
2021/12/21 09:09:35;;;;;;;36.22;17.08;;;;;;;-2.07;83.05;100289.53;4952009;28;20039;-60
2021/12/21 09:12:01;;;;;;;29.52;14.15;;;;;;;-1.93;79.82;100296.22;4949122;28;20099;-60
2021/12/21 09:14:31;;;;;;;29.42;14.40;;;;;;;-1.09;77.06;100301.78;4958847;28;20042;-61
2021/12/21 09:16:57;;;;;;;35.95;17.35;;;;;;;-1.56;76.22;100297.22;4950194;28;20461;-61
2021/12/21 09:19:23;;;;;;;40.05;18.35;;;;;;;-1.22;77.26;100298.59;4952933;28;20043;-60
2021/12/21 09:21:48;;;;;;;39.33;19.30;;;;;;;-0.87;76.39;100300.63;4956541;28;20050;-60
2021/12/21 09:24:13;;;;;;;48.03;18.73;;;;;;;-0.78;74.39;100298.94;4948404;28;20043;-62
2021/12/21 09:26:40;;;;;;;34.95;18.00;;;;;;;-0.54;73.57;100304.53;4951322;28;20086;-62
2021/12/21 09:29:06;;;;;;;37.38;18.73;;;;;;;-0.29;71.50;100313.59;4951739;28;20035;-61
2021/12/21 09:31:31;;;;;;;40.72;18.38;;;;;;;0.23;71.36;100314.84;4952120;28;20046;-62
2021/12/21 09:33:56;;;;;;;37.33;16.52;;;;;;;-0.29;72.57;100316.22;4954574;28;20038;-61
2021/12/21 09:36:22;;;;;;;50.13;16.77;;;;;;;-0.26;71.33;100315.91;4953074;28;20050;-61
2021/12/21 09:38:48;;;;;;;37.15;13.43;;;;;;;-0.24;72.05;100319.25;4946314;28;20023;-61
2021/12/21 09:41:13;;;;;;;39.47;12.05;;;;;;;-0.04;73.22;100317.34;4953196;28;20043;-61
2021/12/21 09:43:40;;;;;;;25.42;10.50;;;;;;;-0.28;73.39;100320.50;4946381;28;20560;-61
2021/12/21 09:46:07;;;;;;;38.47;11.18;;;;;;;-0.20;72.93;100314.53;4951205;28;20043;-61
2021/12/21 09:48:32;;;;;;;24.70;9.15;;;;;;;0.08;71.07;100317.97;4954550;28;20049;-61
2021/12/21 09:50:58;;;;;;;26.70;8.77;;;;;;;0.44;69.89;100318.00;4956090;28;20638;-61
2021/12/21 09:53:23;;;;;;;28.48;8.73;;;;;;;0.57;68.68;100318.47;4948232;28;20492;-61
2021/12/21 09:55:49;;;;;;;36.42;8.35;;;;;;;0.23;69.89;100315.66;4946827;28;20430;-62
2021/12/21 09:58:15;;;;;;;24.08;9.05;;;;;;;-0.18;71.86;100317.00;4946640;28;20030;-61
2021/12/21 10:00:40;;;;;;;24.48;7.72;;;;;;;-0.17;72.60;100318.69;4954443;28;20051;-61
2021/12/21 10:03:09;;;;;;;21.60;9.10;;;;;;;-0.13;72.71;100315.59;4948866;28;20712;-61
2021/12/21 10:05:40;;;;;;;26.77;8.35;;;;;;;0.54;69.99;100300.28;4948431;28;20046;-61
2021/12/21 10:08:09;;;;;;;23.08;8.45;;;;;;;1.17;67.98;100301.09;4950099;28;20062;-61
2021/12/21 10:10:39;;;;;;;17.05;8.30;;;;;;;0.90;68.47;100308.19;4956633;28;20082;-60
2021/12/21 10:13:23;;;;;;;21.38;7.60;;;;;;;0.73;68.77;100306.41;4951692;28;20131;-61
2021/12/21 10:15:53;;;;;;;19.98;8.02;;;;;;;0.93;67.82;100299.97;4946193;28;20043;-62
2021/12/21 10:18:32;;;;;;;20.92;8.73;;;;;;;0.84;68.42;100292.97;4951471;28;20047;-59
2021/12/21 10:20:59;;;;;;;30.83;11.45;;;;;;;0.24;70.91;100290.94;4947657;28;20130;-61
2021/12/21 10:23:27;;;;;;;32.88;11.32;;;;;;;0.02;70.91;100292.19;4950157;28;20165;-61
2021/12/21 10:25:56;;;;;;;26.42;11.52;;;;;;;0.37;72.51;100295.84;4955502;28;20652;-61
2021/12/21 10:28:47;;;;;;;25.05;11.73;;;;;;;0.85;70.98;100289.34;4956623;28;20026;-61
2021/12/21 10:31:22;;;;;;;29.73;12.55;;;;;;;1.17;69.70;100290.53;4941053;28;20035;-61
2021/12/21 10:33:48;;;;;;;26.77;11.48;;;;;;;1.50;67.79;100289.75;4949893;28;20047;-61
2021/12/21 10:36:15;;;;;;;29.63;12.45;;;;;;;1.42;68.47;100292.38;4958051;28;20448;-61
2021/12/21 10:38:49;;;;;;;32.50;11.05;;;;;;;1.64;67.89;100279.56;4956363;28;20496;-61
2021/12/21 10:41:20;;;;;;;29.23;11.23;;;;;;;1.38;69.05;100291.00;4953745;28;20043;-61
2021/12/21 10:44:05;;;;;;;24.98;10.38;;;;;;;1.51;68.40;100285.28;4953117;28;20049;-61
2021/12/21 10:46:33;;;;;;;32.45;11.65;;;;;;;1.01;70.91;100283.34;4951161;28;20059;-60
2021/12/21 10:49:08;;;;;;;33.17;9.85;;;;;;;1.29;69.92;100287.47;4953348;28;20466;-61
2021/12/21 10:51:35;;;;;;;30.25;9.18;;;;;;;0.82;69.39;100279.09;4958622;28;20051;-61
2021/12/21 10:54:00;;;;;;;23.63;9.45;;;;;;;1.00;70.23;100277.25;4950843;28;20055;-60
2021/12/21 10:56:26;;;;;;;23.60;9.90;;;;;;;1.66;68.62;100273.13;4950814;28;20054;-60
2021/12/21 10:58:51;;;;;;;22.15;9.82;;;;;;;1.99;67.55;100272.41;4949048;28;20141;-60
2021/12/21 11:01:25;;;;;;;32.55;10.02;;;;;;;1.78;65.80;100268.41;4950889;28;20094;-61
2021/12/21 11:03:53;;;;;;;28.92;10.35;;;;;;;1.76;66.83;100266.91;4952120;28;20153;-60
2021/12/21 11:06:33;;;;;;;28.88;10.25;;;;;;;1.40;67.00;100264.41;4957061;28;20066;-61
2021/12/21 11:08:58;;;;;;;30.38;10.70;;;;;;;1.27;68.67;100270.13;4951160;28;20118;-61
2021/12/21 11:11:32;;;;;;;24.25;11.07;;;;;;;0.98;71.71;100268.66;4953257;28;20046;-62
2021/12/21 11:14:13;;;;;;;22.08;10.13;;;;;;;1.14;71.26;100267.09;4946537;28;20043;-63
2021/12/21 11:16:46;;;;;;;25.65;10.60;;;;;;;0.89;71.27;100266.09;4952766;28;20038;-61
2021/12/21 11:19:13;;;;;;;21.33;10.57;;;;;;;0.96;73.13;100260.06;4954337;28;20134;-61
2021/12/21 11:21:39;;;;;;;37.20;9.40;;;;;;;0.70;73.40;100256.56;4948754;28;20035;-60
2021/12/21 11:24:08;;;;;;;25.48;10.10;;;;;;;0.06;75.89;100259.31;4956434;28;20078;-60
2021/12/21 11:26:34;;;;;;;24.45;11.63;;;;;;;0.31;76.36;100249.81;4959148;28;20103;-60
2021/12/21 11:29:14;;;;;;;38.25;11.45;;;;;;;0.41;75.17;100247.09;4947686;28;20038;-61
2021/12/21 11:31:48;;;;;;;27.60;10.60;;;;;;;0.21;75.52;100244.63;4955493;28;20486;-62
2021/12/21 11:34:17;;;;;;;36.42;10.98;;;;;;;-0.10;76.02;100240.66;4953629;28;20097;-62
2021/12/21 11:39:31;;;;;;;28.30;10.18;;;;;;;0.01;77.37;100237.84;4948012;28;20896;-61
2021/12/21 11:41:57;;;;;;;26.77;10.10;;;;;;;0.26;78.19;100236.25;4951199;28;20070;-60
2021/12/21 11:44:26;;;;;;;25.05;10.88;;;;;;;-0.28;77.94;100233.56;4955608;28;20035;-60
2021/12/21 11:46:58;;;;;;;27.25;10.88;;;;;;;-0.27;77.82;100224.69;4956189;28;20049;-60
2021/12/21 11:49:48;;;;;;;36.92;12.77;;;;;;;-0.52;79.38;100225.41;4954529;28;20042;-60
2021/12/21 11:52:18;;;;;;;31.20;12.15;;;;;;;-0.37;78.15;100213.38;4951698;28;20102;-60
2021/12/21 11:54:50;;;;;;;29.88;12.57;;;;;;;-0.53;78.97;100210.56;4950781;28;20078;-60
2021/12/21 11:57:16;;;;;;;30.80;13.45;;;;;;;-0.21;77.26;100207.47;4950703;28;20059;-60
2021/12/21 11:59:41;;;;;;;34.70;13.60;;;;;;;-0.23;79.02;100210.22;4953057;28;20035;-60
2021/12/21 12:02:07;;;;;;;41.00;14.93;;;;;;;-0.43;79.08;100203.44;4951185;28;20046;-60
2021/12/21 12:04:33;;;;;;;33.28;13.90;;;;;;;-0.41;79.10;100201.47;4953491;28;20031;-60
2021/12/21 12:06:59;;;;;;;27.17;13.02;;;;;;;-0.55;78.17;100196.69;4955558;28;20312;-60
2021/12/21 12:09:31;;;;;;;38.25;13.15;;;;;;;-0.69;79.17;100183.06;4952367;28;20122;-60
2021/12/21 12:12:13;;;;;;;29.95;12.52;;;;;;;-0.73;82.00;100192.22;4952733;28;20038;-60
2021/12/21 12:14:46;;;;;;;24.33;11.30;;;;;;;-0.46;79.51;100195.81;4958135;28;20571;-61
2021/12/21 12:17:13;;;;;;;34.10;11.75;;;;;;;-0.49;79.26;100194.31;4942429;28;20034;-60
2021/12/21 12:19:41;;;;;;;29.05;12.45;;;;;;;-0.34;80.67;100192.00;4955778;28;20030;-60